Time;durP1;ratioP1;P1;durP2;ratioP2;P2;SDS_P1;SDS_P2;PMS_P1;PMS_P2;Temp;Humidity;BMP_temperature;BMP_pressure;BME280_temperature;BME280_humidity;BME280_pressure;Samples;Min_cycle;Max_cycle;Signal;HPM_P1;HPM_P2
2021/10/30 00:01:33;;;;;;;9.35;5.40;;;;;;;;;;21090718;28;20385;-67
2021/10/30 00:11:35;;;;;;;6.97;4.45;;;;;;;;;;21091228;28;20083;-66
2021/10/30 00:21:38;;;;;;;7.22;3.97;;;;;;;;;;21089174;28;20051;-64
2021/10/30 00:31:40;;;;;;;8.98;4.30;;;;;;;;;;21088017;28;20052;-65
2021/10/30 00:41:47;;;;;;;7.25;3.40;;;;;;;;;;21087953;28;20071;-65
2021/10/30 00:51:52;;;;;;;4.75;2.70;;;;;;;;;;21086590;28;20074;-66
2021/10/30 01:01:54;;;;;;;7.18;3.42;;;;;;;;;;21086529;28;20166;-65
2021/10/30 01:11:56;;;;;;;6.40;3.92;;;;;;;;;;21085383;28;20143;-65
2021/10/30 01:21:57;;;;;;;6.57;4.57;;;;;;;;;;21084663;28;20124;-67
2021/10/30 01:31:59;;;;;;;10.15;5.10;;;;;;;;;;21084152;28;20444;-67
2021/10/30 01:42:01;;;;;;;7.50;4.35;;;;;;;;;;21082302;28;20055;-64
2021/10/30 01:52:03;;;;;;;9.88;4.35;;;;;;;;;;21081328;28;20092;-65
2021/10/30 02:02:04;;;;;;;12.45;7.50;;;;;;;;;;21080978;28;20095;-59
2021/10/30 02:12:06;;;;;;;14.00;9.82;;;;;;;;;;21080979;28;20506;-65
2021/10/30 02:22:10;;;;;;;10.13;7.38;;;;;;;;;;21080034;28;20386;-66
2021/10/30 02:32:14;;;;;;;16.10;10.23;;;;;;;;;;21079535;28;20412;-58
2021/10/30 02:42:18;;;;;;;12.07;8.10;;;;;;;;;;21079144;28;20476;-58
2021/10/30 02:52:23;;;;;;;8.88;7.63;;;;;;;;;;21078055;28;20411;-57
2021/10/30 03:02:25;;;;;;;10.57;7.63;;;;;;;;;;21077639;28;20048;-63
2021/10/30 03:12:27;;;;;;;12.55;8.18;;;;;;;;;;21077205;28;20056;-64
2021/10/30 03:22:28;;;;;;;10.38;6.80;;;;;;;;;;21076603;28;20091;-59
2021/10/30 03:32:30;;;;;;;10.82;7.25;;;;;;;;;;21076071;28;20052;-63
2021/10/30 03:42:34;;;;;;;9.60;6.28;;;;;;;;;;21076409;28;20044;-62
2021/10/30 03:52:38;;;;;;;;;;;;;;;;;;21076943;28;20126;-66
2021/10/30 04:02:41;;;;;;;6.93;4.38;;;;;;;;;;21086732;28;19927;-66
2021/10/30 04:12:45;;;;;;;8.00;4.25;;;;;;;;;;21090176;28;20515;-65
2021/10/30 04:22:51;;;;;;;10.50;5.93;;;;;;;;;;21089608;28;20052;-60
2021/10/30 04:32:58;;;;;;;5.20;3.28;;;;;;;;;;21088567;28;20131;-58
2021/10/30 04:43:04;;;;;;;3.88;1.60;;;;;;;;;;21088876;28;20044;-64
2021/10/30 04:53:08;;;;;;;2.33;1.40;;;;;;;;;;21087656;28;20047;-65
2021/10/30 05:03:11;;;;;;;2.05;1.10;;;;;;;;;;21085274;28;20083;-64
2021/10/30 05:13:13;;;;;;;3.70;1.30;;;;;;;;;;21083527;28;20052;-63
2021/10/30 05:23:15;;;;;;;1.48;0.68;;;;;;;;;;21085072;28;20169;-60
2021/10/30 05:33:17;;;;;;;1.75;0.60;;;;;;;;;;21083474;28;20056;-62
2021/10/30 05:43:18;;;;;;;2.15;0.80;;;;;;;;;;21083556;28;20484;-56
2021/10/30 05:53:20;;;;;;;3.97;1.00;;;;;;;;;;21082840;28;20044;-57
2021/10/30 06:03:22;;;;;;;3.20;1.13;;;;;;;;;;21080971;28;20484;-56
2021/10/30 06:13:24;;;;;;;4.85;1.33;;;;;;;;;;21080754;28;20055;-57
2021/10/30 06:23:25;;;;;;;3.75;1.50;;;;;;;;;;21079813;28;20059;-58
2021/10/30 06:33:27;;;;;;;9.05;4.97;;;;;;;;;;21061432;28;20117;-56
2021/10/30 06:43:29;;;;;;;2.90;1.40;;;;;;;;;;21079486;28;20040;-57
2021/10/30 06:53:33;;;;;;;5.97;2.23;;;;;;;;;;21078726;28;20397;-58
2021/10/30 07:03:36;;;;;;;3.95;1.25;;;;;;;;;;21077450;28;20436;-61
2021/10/30 07:13:39;;;;;;;3.38;1.13;;;;;;;;;;21077407;28;20059;-62
2021/10/30 07:23:41;;;;;;;2.83;1.20;;;;;;;;;;21076993;28;20504;-57
2021/10/30 07:33:43;;;;;;;4.40;1.33;;;;;;;;;;21072740;28;20083;-61
2021/10/30 07:43:45;;;;;;;4.10;1.00;;;;;;;;;;21092688;28;20075;-64
2021/10/30 07:53:48;;;;;;;5.50;1.92;;;;;;;;;;21091312;28;20052;-66
2021/10/30 08:03:52;;;;;;;2.97;1.20;;;;;;;;;;21090934;28;20056;-65
2021/10/30 08:13:55;;;;;;;2.05;1.10;;;;;;;;;;21090370;28;20424;-66
2021/10/30 08:23:59;;;;;;;2.80;0.95;;;;;;;;;;21090168;28;20044;-65
2021/10/30 08:34:03;;;;;;;5.20;1.88;;;;;;;;;;21087414;28;20141;-56
2021/10/30 08:44:04;;;;;;;3.60;1.48;;;;;;;;;;21087128;28;20048;-60
2021/10/30 08:54:06;;;;;;;6.90;3.55;;;;;;;;;;21085631;28;20047;-57
2021/10/30 09:04:11;;;;;;;7.35;4.63;;;;;;;;;;21089108;28;20060;-63
2021/10/30 09:14:18;;;;;;;17.30;11.32;;;;;;;;;;21084990;28;20059;-62
2021/10/30 09:24:21;;;;;;;8.50;6.40;;;;;;;;;;21084686;28;20127;-64
2021/10/30 09:34:30;;;;;;;4.50;2.75;;;;;;;;;;21083626;28;20450;-62
2021/10/30 09:44:33;;;;;;;11.55;7.50;;;;;;;;;;21082562;28;20381;-61
2021/10/30 09:54:39;;;;;;;16.25;10.95;;;;;;;;;;21081727;28;20466;-65
2021/10/30 10:04:42;;;;;;;4.07;3.28;;;;;;;;;;21080756;28;20067;-64
2021/10/30 10:14:44;;;;;;;4.00;3.15;;;;;;;;;;21079773;28;20048;-64
2021/10/30 10:24:45;;;;;;;4.13;2.65;;;;;;;;;;21082597;28;20063;-63
2021/10/30 10:34:48;;;;;;;2.00;1.33;;;;;;;;;;21088206;28;20052;-63
2021/10/30 10:44:55;;;;;;;10.60;8.55;;;;;;;;;;21084166;28;20055;-61
2021/10/30 10:55:02;;;;;;;4.63;1.73;;;;;;;;;;21079566;28;20052;-57
2021/10/30 11:05:10;;;;;;;3.72;1.30;;;;;;;;;;21078679;28;20059;-59
2021/10/30 11:15:14;;;;;;;2.58;1.60;;;;;;;;;;21096445;28;20088;-64
2021/10/30 11:25:16;;;;;;;3.33;1.60;;;;;;;;;;21114102;28;20109;-65
2021/10/30 11:35:18;;;;;;;2.28;1.30;;;;;;;;;;21094158;28;20127;-65
2021/10/30 11:45:21;;;;;;;1.63;1.10;;;;;;;;;;21092237;28;20044;-62
2021/10/30 11:55:24;;;;;;;4.82;1.30;;;;;;;;;;21090681;28;20048;-66
2021/10/30 12:05:33;;;;;;;2.23;1.40;;;;;;;;;;21090719;28;20048;-61
2021/10/30 12:15:40;;;;;;;2.10;1.30;;;;;;;;;;21089951;28;20101;-64
2021/10/30 12:25:42;;;;;;;2.30;1.20;;;;;;;;;;21088070;28;20048;-61
2021/10/30 12:35:45;;;;;;;1.75;1.13;;;;;;;;;;21088860;28;20054;-63
2021/10/30 12:45:48;;;;;;;2.45;1.10;;;;;;;;;;21087866;28;20051;-61
2021/10/30 12:56:01;;;;;;;2.05;0.80;;;;;;;;;;21086555;28;20078;-67
2021/10/30 13:06:03;;;;;;;2.42;1.10;;;;;;;;;;21086182;28;20048;-66
2021/10/30 13:16:06;;;;;;;1.53;0.70;;;;;;;;;;21086080;28;20058;-65
2021/10/30 13:26:09;;;;;;;1.77;0.83;;;;;;;;;;21084396;28;20044;-65
2021/10/30 13:36:13;;;;;;;2.63;0.87;;;;;;;;;;21082998;28;20059;-65
2021/10/30 13:46:17;;;;;;;0.70;0.43;;;;;;;;;;21085879;28;20078;-67
2021/10/30 13:56:21;;;;;;;2.08;0.80;;;;;;;;;;21082929;28;20450;-66
2021/10/30 14:06:32;;;;;;;3.85;1.02;;;;;;;;;;21082550;28;20048;-65
2021/10/30 14:16:34;;;;;;;3.00;1.13;;;;;;;;;;21078768;28;20055;-65
2021/10/30 14:26:37;;;;;;;2.83;1.30;;;;;;;;;;21077652;28;20500;-64
2021/10/30 14:36:40;;;;;;;2.17;0.90;;;;;;;;;;21078421;28;20081;-64
2021/10/30 14:46:42;;;;;;;4.13;1.10;;;;;;;;;;21077290;28;20048;-65
2021/10/30 14:56:45;;;;;;;1.83;1.10;;;;;;;;;;21076452;28;20044;-64
2021/10/30 15:06:46;;;;;;;2.33;1.20;;;;;;;;;;21076017;28;20040;-64
2021/10/30 15:16:49;;;;;;;1.83;1.10;;;;;;;;;;21076133;28;20051;-64
2021/10/30 15:26:51;;;;;;;3.88;1.90;;;;;;;;;;21076840;28;20056;-64
2021/10/30 15:36:53;;;;;;;2.85;1.27;;;;;;;;;;21077619;28;20131;-66
2021/10/30 15:46:55;;;;;;;3.00;1.60;;;;;;;;;;21075848;28;20056;-63
2021/10/30 15:56:56;;;;;;;1.73;0.70;;;;;;;;;;21082155;28;20508;-60
2021/10/30 16:06:58;;;;;;;1.50;0.90;;;;;;;;;;21087812;28;20048;-59
2021/10/30 16:17:00;;;;;;;2.58;1.17;;;;;;;;;;21089125;28;20056;-66
2021/10/30 16:27:01;;;;;;;1.80;1.00;;;;;;;;;;21088572;28;20485;-60
2021/10/30 16:37:03;;;;;;;2.05;1.23;;;;;;;;;;21085556;28;20514;-64
2021/10/30 16:47:05;;;;;;;3.95;1.15;;;;;;;;;;21085989;28;20113;-66
2021/10/30 16:57:07;;;;;;;6.22;2.10;;;;;;;;;;21084700;28;20052;-57
2021/10/30 17:07:08;;;;;;;3.55;2.45;;;;;;;;;;21084623;28;20044;-64
2021/10/30 17:17:11;;;;;;;5.63;2.10;;;;;;;;;;21083412;28;20079;-67
2021/10/30 17:27:16;;;;;;;10.45;5.78;;;;;;;;;;21082451;28;20472;-65
2021/10/30 17:37:18;;;;;;;3.15;1.40;;;;;;;;;;21081969;28;20479;-64
2021/10/30 17:47:19;;;;;;;4.10;1.48;;;;;;;;;;21082541;28;20047;-59
2021/10/30 17:57:21;;;;;;;3.35;1.13;;;;;;;;;;21081305;28;20048;-62
2021/10/30 18:07:23;;;;;;;3.83;1.40;;;;;;;;;;21081260;28;20071;-60
2021/10/30 18:17:24;;;;;;;4.75;1.20;;;;;;;;;;21079592;28;20055;-63
2021/10/30 18:27:26;;;;;;;2.05;1.33;;;;;;;;;;21079159;28;20060;-59
2021/10/30 18:37:28;;;;;;;2.47;1.48;;;;;;;;;;21078269;28;20044;-62
2021/10/30 18:47:30;;;;;;;2.75;1.30;;;;;;;;;;21078439;28;20051;-60
2021/10/30 18:57:31;;;;;;;4.22;2.17;;;;;;;;;;21078055;28;20056;-64
2021/10/30 19:07:33;;;;;;;3.28;1.40;;;;;;;;;;21078487;28;20044;-58
2021/10/30 19:17:35;;;;;;;3.60;1.92;;;;;;;;;;21078828;28;20052;-60
2021/10/30 19:27:37;;;;;;;3.47;1.60;;;;;;;;;;21079077;28;20052;-63
2021/10/30 19:37:39;;;;;;;3.75;1.33;;;;;;;;;;21093643;28;20376;-66
2021/10/30 19:47:41;;;;;;;3.53;1.40;;;;;;;;;;21091888;28;20530;-61
2021/10/30 19:57:43;;;;;;;3.70;1.42;;;;;;;;;;21090050;28;20459;-62
2021/10/30 20:07:45;;;;;;;2.95;1.58;;;;;;;;;;21090836;28;20546;-60
2021/10/30 20:17:47;;;;;;;3.00;1.35;;;;;;;;;;21090116;28;20044;-62
2021/10/30 20:27:49;;;;;;;2.97;1.48;;;;;;;;;;21089282;28;20079;-68
2021/10/30 20:37:51;;;;;;;7.15;2.53;;;;;;;;;;21088567;28;20076;-67
2021/10/30 20:47:54;;;;;;;6.57;1.85;;;;;;;;;;21087533;28;20043;-61
2021/10/30 20:57:56;;;;;;;4.13;1.70;;;;;;;;;;21086566;28;20127;-66
2021/10/30 21:07:58;;;;;;;7.93;2.30;;;;;;;;;;21085244;28;20048;-66
2021/10/30 21:18:00;;;;;;;5.28;2.47;;;;;;;;;;21085036;28;20055;-65
2021/10/30 21:28:02;;;;;;;6.05;2.58;;;;;;;;;;21083710;28;20048;-63
2021/10/30 21:38:04;;;;;;;5.93;2.88;;;;;;;;;;21083954;28;20405;-66
2021/10/30 21:48:06;;;;;;;2.78;1.63;;;;;;;;;;21082550;28;20048;-66
2021/10/30 21:58:08;;;;;;;2.88;1.00;;;;;;;;;;21080855;28;20044;-63
2021/10/30 22:08:10;;;;;;;2.35;1.17;;;;;;;;;;21081356;28;20055;-65
2021/10/30 22:18:13;;;;;;;3.40;1.73;;;;;;;;;;21081147;28;20076;-64
2021/10/30 22:28:15;;;;;;;3.92;1.48;;;;;;;;;;21080502;28;20054;-64
2021/10/30 22:38:17;;;;;;;3.63;1.30;;;;;;;;;;21079931;28;20502;-66
2021/10/30 22:48:19;;;;;;;3.78;1.73;;;;;;;;;;21082530;28;20052;-65
2021/10/30 22:58:21;;;;;;;2.70;1.70;;;;;;;;;;21080257;28;20044;-65
2021/10/30 23:08:24;;;;;;;5.93;2.25;;;;;;;;;;21102933;28;20048;-64
2021/10/30 23:18:26;;;;;;;3.57;1.40;;;;;;;;;;21095803;28;20056;-65
2021/10/30 23:28:29;;;;;;;3.65;1.52;;;;;;;;;;21094096;28;20044;-63
2021/10/30 23:38:31;;;;;;;4.90;1.80;;;;;;;;;;21093921;28;20496;-66
2021/10/30 23:48:45;;;;;;;5.38;1.80;;;;;;;;;;21092875;28;20130;-64
2021/10/30 23:59:12;;;;;;;2.90;1.52;;;;;;;;;;21091188;28;20393;-66
